Página principal
METAR-TAF:

METAR-TAF

Aeroportos :

Aeroporto Internacional de N'Djamena

N'Djamena, Chade

latitude: 12-08N, longitude: 015-02E, altura: 295 m

Observação actual do tempo

O boletim foi feito há 28 minutos, às 21:00 UTC
Vento 6 kt de norte
Temperatura 30°C
Humidade 19%
Pressão 1009 hPa
Visibilidade: 6000 m

METAR: FTTJ 272100Z 36006KT 6000 NSC 30/04 Q1009 NOSIG

Hora: 22:28 (21:28 UTC)

Previsão

O boletim foi feito há 4 horas e 28 minutos, às 17:00 UTC
Previsão válida de 27 às 18 UTC a 28 às 24 UTC
Vento 10 kt de nor-nordeste
Visibilidade: 7000 m
Temporariamente
de 28 às 16 UTC a 28 às 18 UTC
Visibilidade: 4000 m
poeira extensa,

TAF: FTTJ 271700Z 2718/2824 02010KT 7000 NSC TEMPO 2816/2818 4000 DU

Observações e previsões do tempo de mais de 4000 aeroportos (mensagens METAR e TAF).

As estações disponíveis são os pontos amarelos e vermelhos sobre o mapa.

Mova o rato sobre o mapa para ver o nome da estação.

Depois clique no ponto para visualizar as observações e previsões meteorológicas.

Para alterar o mapa : clique nos botões verdes com uma cruz preta para aumentar o zoom; no botão verde com uma pitada de zoom; ou nas setas verdes para mapas adjacentes.


METAR-TAF: